Terminal Aerodrome Forecast
Issued by NWS Spokane, WA

Home | Current Version | Previous Version | Text Only | Print | Product List | Glossary On
Versions: 1 2 3 4 5 6 7 8 9 10 11 12 13 14 15 16 17 18 19 20 21 22 23 24 25
190
FTUS46 KOTX 050642 AAA
TAFLWS
TAF AMD
KLWS 050642Z 0507/0606 32005KT P6SM VCSH SCT080 BKN150
     FM050900 VRB03KT P6SM BKN100
     FM051800 30008KT P6SM VCSH SCT070 BKN120
     FM060100 30010KT P6SM -SHRA VCTS SCT070CB BKN120=

USA.gov is the U.S. government's official web portal to all federal, state and local government web resources and services.